Time,TemperatureF,DewpointF,PressureIn,WindDirection,WindDirectionDegrees,WindSpeedMPH,WindSpeedGustMPH,Humidity,HourlyPrecipIn,Conditions,Clouds,dailyrainin,SoftwareType,DateUTC
2013-04-09 00:04:00,37.0,16.0,30.04,NNW,337,4.3,13.6,42,0.00,,,0.00,WUHU21623XXSP,2013-04-09 07:04:00,
2013-04-09 00:09:00,37.0,16.0,30.04,WNW,292,8.3,8.3,42,0.00,,,0.00,WUHU21623XXSP,2013-04-09 07:09:00,
2013-04-09 00:14:00,36.9,16.5,30.04,North,0,10.5,10.5,43,0.00,,,0.00,WUHU21623XXSP,2013-04-09 07:14:00,
2013-04-09 00:19:00,36.9,16.3,30.04,NNE,22,9.2,10.5,43,0.00,,,0.00,WUHU21623XXSP,2013-04-09 07:19:00,
2013-04-09 00:24:00,36.7,16.7,30.04,NW,315,8.9,9.2,44,0.00,,,0.00,WUHU21623XXSP,2013-04-09 07:24:00,
2013-04-09 00:31:00,36.7,16.7,30.04,NW,315,6.0,8.9,44,0.00,,,0.00,WUHU21623XXSP,2013-04-09 07:31:00,
2013-04-09 00:36:00,36.7,16.7,30.04,NW,315,6.0,6.0,44,0.00,,,0.00,WUHU21623XXSP,2013-04-09 07:36:00,
2013-04-09 00:48:00,36.3,16.9,30.05,NW,315,3.6,3.6,45,0.00,,,0.00,WUHU21623XXSP,2013-04-09 07:48:00,
2013-04-09 00:53:00,36.3,16.9,30.05,NNW,337,3.8,3.8,45,0.00,,,0.00,WUHU21623XXSP,2013-04-09 07:53:00,
2013-04-09 00:58:00,36.1,16.7,30.05,NNE,22,6.5,6.5,45,0.00,,,0.00,WUHU21623XXSP,2013-04-09 07:58:00,
2013-04-09 01:03:00,36.0,17.1,30.06,NNW,337,10.7,10.7,46,0.00,,,0.00,WUHU21623XXSP,2013-04-09 08:03:00,
2013-04-09 01:09:00,35.8,16.9,30.06,North,0,3.1,10.7,46,0.00,,,0.00,WUHU21623XXSP,2013-04-09 08:09:00,
2013-04-09 01:15:00,35.8,16.9,30.06,NW,315,0.9,3.1,46,0.00,,,0.00,WUHU21623XXSP,2013-04-09 08:15:00,
2013-04-09 01:22:00,35.4,17.1,30.06,WNW,292,4.5,4.5,47,0.00,,,0.00,WUHU21623XXSP,2013-04-09 08:22:00,
2013-04-09 01:41:00,35.1,16.9,30.06,North,0,7.6,7.6,47,0.00,,,0.00,WUHU21623XXSP,2013-04-09 08:41:00,
2013-04-09 01:48:00,34.9,16.6,30.07,North,0,2.9,7.6,47,0.00,,,0.00,WUHU21623XXSP,2013-04-09 08:48:00,
2013-04-09 01:57:00,34.7,16.4,30.06,NNW,337,0.0,2.9,47,0.00,,,0.00,WUHU21623XXSP,2013-04-09 08:57:00,
2013-04-09 02:02:00,34.5,16.2,30.06,NNW,337,0.0,0.0,47,0.00,,,0.00,WUHU21623XXSP,2013-04-09 09:02:00,
2013-04-09 02:07:00,34.5,16.2,30.06,West,270,0.0,0.0,47,0.00,,,0.00,WUHU21623XXSP,2013-04-09 09:07:00,
2013-04-09 02:12:00,34.3,16.1,30.06,NE,45,0.0,0.0,47,0.00,,,0.00,WUHU21623XXSP,2013-04-09 09:12:00,
2013-04-09 02:20:00,34.0,15.2,30.06,SSW,202,0.0,0.0,46,0.00,,,0.00,WUHU21623XXSP,2013-04-09 09:20:00,
2013-04-09 02:26:00,33.6,14.9,30.06,NW,315,0.0,0.0,46,0.00,,,0.00,WUHU21623XXSP,2013-04-09 09:26:00,
2013-04-09 02:37:00,33.1,14.4,30.06,NE,45,4.3,4.3,46,0.00,,,0.00,WUHU21623XXSP,2013-04-09 09:37:00,
2013-04-09 02:42:00,32.9,14.2,30.06,NNE,22,0.0,4.3,47,0.00,,,0.00,WUHU21623XXSP,2013-04-09 09:42:00,
2013-04-09 02:48:00,32.7,14.6,30.06,NE,45,0.0,0.0,47,0.00,,,0.00,WUHU21623XXSP,2013-04-09 09:48:00,
2013-04-09 02:57:00,32.5,14.9,30.06,NNE,22,0.0,0.0,48,0.00,,,0.00,WUHU21623XXSP,2013-04-09 09:57:00,
2013-04-09 03:02:00,32.5,14.9,30.06,NNE,22,0.0,0.0,48,0.00,,,0.00,WUHU21623XXSP,2013-04-09 10:02:00,
2013-04-09 03:07:00,32.5,14.9,30.06,North,0,0.0,0.0,47,0.00,,,0.00,WUHU21623XXSP,2013-04-09 10:07:00,
2013-04-09 03:16:00,32.2,14.1,30.06,NNE,22,0.0,0.0,47,0.00,,,0.00,WUHU21623XXSP,2013-04-09 10:16:00,
2013-04-09 03:21:00,32.2,14.1,30.06,North,0,0.0,0.0,47,0.00,,,0.00,WUHU21623XXSP,2013-04-09 10:21:00,
2013-04-09 03:31:00,31.6,14.1,30.06,NNW,337,0.0,0.0,48,0.00,,,0.00,WUHU21623XXSP,2013-04-09 10:31:00,
2013-04-09 03:42:00,31.6,14.6,30.06,NW,315,0.7,0.7,49,0.00,,,0.00,WUHU21623XXSP,2013-04-09 10:42:00,
2013-04-09 03:50:00,31.6,14.6,30.06,SSE,157,0.0,0.7,49,0.00,,,0.00,WUHU21623XXSP,2013-04-09 10:50:00,
2013-04-09 03:55:00,31.3,14.3,30.07,SSE,157,0.9,0.9,49,0.00,,,0.00,WUHU21623XXSP,2013-04-09 10:55:00,
2013-04-09 04:00:00,31.3,14.3,30.07,SSE,157,0.9,0.9,49,0.00,,,0.00,WUHU21623XXSP,2013-04-09 11:00:00,
2013-04-09 04:05:00,31.1,14.1,30.07,SSE,157,0.0,0.9,49,0.00,,,0.00,WUHU21623XXSP,2013-04-09 11:05:00,
2013-04-09 04:16:00,30.0,13.2,30.07,East,90,0.0,0.0,49,0.00,,,0.00,WUHU21623XXSP,2013-04-09 11:16:00,
2013-04-09 04:21:00,29.8,13.0,30.06,SE,135,0.0,0.0,49,0.00,,,0.00,WUHU21623XXSP,2013-04-09 11:21:00,
2013-04-09 04:33:00,29.3,12.5,30.07,North,0,0.0,0.0,49,0.00,,,0.00,WUHU21623XXSP,2013-04-09 11:33:00,
2013-04-09 04:42:00,28.9,12.2,30.07,NNE,22,0.0,0.0,49,0.00,,,0.00,WUHU21623XXSP,2013-04-09 11:42:00,
2013-04-09 04:47:00,28.8,12.2,30.07,NNE,22,0.0,0.0,49,0.00,,,0.00,WUHU21623XXSP,2013-04-09 11:47:00,
2013-04-09 04:52:00,28.6,11.9,30.07,ENE,67,0.0,0.0,49,0.00,,,0.00,WUHU21623XXSP,2013-04-09 11:52:00,
2013-04-09 04:57:00,28.6,11.9,30.07,ENE,67,0.0,0.0,49,0.00,,,0.00,WUHU21623XXSP,2013-04-09 11:57:00,
2013-04-09 05:02:00,28.2,11.5,30.08,NE,45,0.0,0.0,49,0.00,,,0.00,WUHU21623XXSP,2013-04-09 12:02:00,
2013-04-09 05:26:00,27.7,11.9,30.09,ESE,112,0.0,0.0,51,0.00,,,0.00,WUHU21623XXSP,2013-04-09 12:26:00,
2013-04-09 05:31:00,27.7,11.9,30.09,SE,135,0.0,0.0,51,0.00,,,0.00,WUHU21623XXSP,2013-04-09 12:31:00,
2013-04-09 05:37:00,27.5,11.7,30.09,SSE,157,0.0,0.0,51,0.00,,,0.00,WUHU21623XXSP,2013-04-09 12:37:00,
2013-04-09 05:42:00,27.5,11.7,30.09,SSE,157,0.0,0.0,51,0.00,,,0.00,WUHU21623XXSP,2013-04-09 12:42:00,
2013-04-09 05:48:00,27.1,11.4,30.09,NNW,337,0.0,0.0,51,0.00,,,0.00,WUHU21623XXSP,2013-04-09 12:48:00,
2013-04-09 05:57:00,27.0,11.2,30.09,South,180,0.0,0.0,51,0.00,,,0.00,WUHU21623XXSP,2013-04-09 12:57:00,
2013-04-09 06:02:00,27.0,11.2,30.09,South,180,0.0,0.0,51,0.00,,,0.00,WUHU21623XXSP,2013-04-09 13:02:00,
2013-04-09 06:07:00,26.6,10.8,30.09,East,90,0.0,0.0,51,0.00,,,0.00,WUHU21623XXSP,2013-04-09 13:07:00,
2013-04-09 06:12:00,26.4,11.1,30.10,South,180,0.0,0.0,52,0.00,,,0.00,WUHU21623XXSP,2013-04-09 13:12:00,
2013-04-09 06:18:00,26.2,10.9,30.10,NNE,22,0.0,1.6,52,0.00,,,0.00,WUHU21623XXSP,2013-04-09 13:18:00,
2013-04-09 06:27:00,25.9,10.6,30.11,NNE,22,0.0,0.0,52,0.00,,,0.00,WUHU21623XXSP,2013-04-09 13:27:00,
2013-04-09 06:32:00,25.9,10.6,30.11,NNE,22,0.0,0.0,52,0.00,,,0.00,WUHU21623XXSP,2013-04-09 13:32:00,
2013-04-09 06:39:00,25.7,10.8,30.11,NNE,22,0.0,0.0,53,0.00,,,0.00,WUHU21623XXSP,2013-04-09 13:39:00,
2013-04-09 06:48:00,25.5,10.7,30.12,NNE,22,0.0,0.0,53,0.00,,,0.00,WUHU21623XXSP,2013-04-09 13:48:00,
2013-04-09 06:54:00,25.5,10.7,30.12,NNE,22,0.0,0.0,53,0.00,,,0.00,WUHU21623XXSP,2013-04-09 13:54:00,
2013-04-09 06:59:00,25.5,10.7,30.12,NNE,22,0.0,0.0,53,0.00,,,0.00,WUHU21623XXSP,2013-04-09 13:59:00,
2013-04-09 07:04:00,25.5,10.7,30.12,WSW,247,0.0,0.0,53,0.00,,,0.00,WUHU21623XXSP,2013-04-09 14:04:00,
2013-04-09 07:09:00,25.5,11.1,30.12,SSW,202,0.0,0.0,54,0.00,,,0.00,WUHU21623XXSP,2013-04-09 14:09:00,
2013-04-09 07:14:00,25.5,11.1,30.12,SE,135,0.0,0.0,54,0.00,,,0.00,WUHU21623XXSP,2013-04-09 14:14:00,
2013-04-09 07:19:00,25.5,11.5,30.13,South,180,0.0,0.0,55,0.00,,,0.00,WUHU21623XXSP,2013-04-09 14:19:00,
2013-04-09 07:24:00,25.5,11.5,30.13,SE,135,0.0,0.0,55,0.00,,,0.00,WUHU21623XXSP,2013-04-09 14:24:00,
2013-04-09 07:29:00,25.7,11.7,30.13,SE,135,0.0,0.0,55,0.00,,,0.00,WUHU21623XXSP,2013-04-09 14:29:00,
2013-04-09 07:39:00,26.1,12.0,30.13,SE,135,0.0,0.0,55,0.00,,,0.00,WUHU21623XXSP,2013-04-09 14:39:00,
2013-04-09 07:48:00,26.6,12.9,30.14,SE,135,0.0,0.0,56,0.00,,,0.00,WUHU21623XXSP,2013-04-09 14:48:00,
2013-04-09 07:59:00,27.5,14.6,30.14,NW,315,0.0,0.0,58,0.00,,,0.00,WUHU21623XXSP,2013-04-09 14:59:00,
2013-04-09 08:05:00,28.2,15.7,30.14,WNW,292,0.0,0.0,59,0.00,,,0.00,WUHU21623XXSP,2013-04-09 15:05:00,
2013-04-09 08:18:00,30.2,17.5,30.15,WNW,292,0.0,0.0,58,0.00,,,0.00,WUHU21623XXSP,2013-04-09 15:18:00,
2013-04-09 08:37:00,32.2,19.1,30.15,WNW,292,0.0,0.0,58,0.00,,,0.00,WUHU21623XXSP,2013-04-09 15:37:00,
2013-04-09 08:42:00,32.7,19.1,30.14,NW,315,0.0,0.0,57,0.00,,,0.00,WUHU21623XXSP,2013-04-09 15:42:00,
2013-04-09 08:47:00,33.1,19.1,30.15,NW,315,0.0,0.0,57,0.00,,,0.00,WUHU21623XXSP,2013-04-09 15:47:00,
2013-04-09 08:52:00,33.6,19.9,30.15,NNW,337,2.0,2.0,56,0.00,,,0.00,WUHU21623XXSP,2013-04-09 15:52:00,
2013-04-09 08:58:00,34.5,20.4,30.15,West,270,8.1,8.1,56,0.00,,,0.00,WUHU21623XXSP,2013-04-09 15:58:00,
2013-04-09 09:15:00,36.5,21.4,30.15,NW,315,0.0,0.0,54,0.00,,,0.00,WUHU21623XXSP,2013-04-09 16:15:00,
2013-04-09 09:20:00,37.2,21.6,30.14,WNW,292,0.0,0.0,53,0.00,,,0.00,WUHU21623XXSP,2013-04-09 16:20:00,
2013-04-09 09:25:00,37.6,21.5,30.15,NW,315,4.0,4.0,52,0.00,,,0.00,WUHU21623XXSP,2013-04-09 16:25:00,
2013-04-09 09:32:00,38.5,21.5,30.15,NE,45,0.0,4.0,50,0.00,,,0.00,WUHU21623XXSP,2013-04-09 16:32:00,
2013-04-09 09:45:00,39.4,20.2,30.16,NW,315,4.0,4.0,45,0.00,,,0.00,WUHU21623XXSP,2013-04-09 16:45:00,
2013-04-09 10:05:00,41.5,20.6,30.15,NNW,337,6.7,6.7,42,0.00,,,0.00,WUHU21623XXSP,2013-04-09 17:05:00,
2013-04-09 10:11:00,42.1,20.0,30.15,North,0,6.7,6.7,41,0.00,,,0.00,WUHU21623XXSP,2013-04-09 17:11:00,
2013-04-09 10:16:00,42.6,20.5,30.15,NNW,337,4.5,6.7,41,0.00,,,0.00,WUHU21623XXSP,2013-04-09 17:16:00,
2013-04-09 10:22:00,43.3,20.6,30.15,NNW,337,4.0,4.5,40,0.00,,,0.00,WUHU21623XXSP,2013-04-09 17:22:00,
2013-04-09 10:28:00,43.9,21.1,30.16,West,270,3.8,4.0,40,0.00,,,0.00,WUHU21623XXSP,2013-04-09 17:28:00,
2013-04-09 10:43:00,45.5,19.9,30.15,NW,315,0.0,0.0,36,0.00,,,0.00,WUHU21623XXSP,2013-04-09 17:43:00,
2013-04-09 10:58:00,47.1,22.7,30.16,NE,45,0.0,0.0,38,0.00,,,0.00,WUHU21623XXSP,2013-04-09 17:58:00,
2013-04-09 11:03:00,47.7,23.2,30.15,WNW,292,0.0,0.0,38,0.00,,,0.00,WUHU21623XXSP,2013-04-09 18:03:00,
2013-04-09 11:08:00,48.2,22.3,30.15,NNE,22,3.4,3.4,36,0.00,,,0.00,WUHU21623XXSP,2013-04-09 18:08:00,
2013-04-09 11:13:00,48.9,22.3,30.15,NW,315,7.4,7.4,34,0.00,,,0.00,WUHU21623XXSP,2013-04-09 18:13:00,
2013-04-09 11:20:00,49.3,21.2,30.15,NW,315,1.6,7.4,33,0.00,,,0.00,WUHU21623XXSP,2013-04-09 18:20:00,
2013-04-09 11:32:00,49.6,20.8,30.15,WNW,292,2.2,2.2,32,0.00,,,0.00,WUHU21623XXSP,2013-04-09 18:32:00,
2013-04-09 11:45:00,49.8,18.7,30.15,North,0,6.3,6.3,29,0.00,,,0.00,WUHU21623XXSP,2013-04-09 18:45:00,
2013-04-09 11:50:00,49.8,18.7,30.15,ENE,67,2.0,6.3,29,0.00,,,0.00,WUHU21623XXSP,2013-04-09 18:50:00,
2013-04-09 11:57:00,50.2,19.0,30.15,NNW,337,3.6,5.8,29,0.00,,,0.00,WUHU21623XXSP,2013-04-09 18:57:00,
2013-04-09 12:07:00,50.7,17.6,30.15,NNW,337,9.4,9.4,27,0.00,,,0.00,WUHU21623XXSP,2013-04-09 19:07:00,
2013-04-09 12:22:00,51.6,19.3,30.15,North,0,6.5,6.5,28,0.00,,,0.00,WUHU21623XXSP,2013-04-09 19:22:00,
2013-04-09 12:28:00,52.3,19.0,30.14,North,0,8.1,8.1,27,0.00,,,0.00,WUHU21623XXSP,2013-04-09 19:28:00,
2013-04-09 12:34:00,52.7,19.3,30.14,ESE,112,0.0,8.1,27,0.00,,,0.00,WUHU21623XXSP,2013-04-09 19:34:00,
2013-04-09 12:48:00,53.6,19.2,30.14,NNW,337,5.6,5.6,26,0.00,,,0.00,WUHU21623XXSP,2013-04-09 19:48:00,
2013-04-09 12:53:00,54.0,19.5,30.14,NW,315,4.5,5.6,26,0.00,,,0.00,WUHU21623XXSP,2013-04-09 19:53:00,
2013-04-09 12:58:00,54.3,16.9,30.13,WNW,292,9.2,9.2,23,0.00,,,0.00,WUHU21623XXSP,2013-04-09 19:58:00,
2013-04-09 13:04:00,54.3,16.9,30.13,North,0,5.1,9.2,23,0.00,,,0.00,WUHU21623XXSP,2013-04-09 20:04:00,
2013-04-09 13:10:00,54.5,17.1,30.13,NE,45,4.7,5.1,23,0.00,,,0.00,WUHU21623XXSP,2013-04-09 20:10:00,
2013-04-09 13:17:00,55.0,16.6,30.13,North,0,0.0,7.6,22,0.00,,,0.00,WUHU21623XXSP,2013-04-09 20:17:00,
2013-04-09 13:24:00,55.6,16.2,30.13,NE,45,2.5,2.5,21,0.00,,,0.00,WUHU21623XXSP,2013-04-09 20:24:00,
2013-04-09 13:29:00,55.9,15.5,30.13,North,0,5.1,5.1,20,0.00,,,0.00,WUHU21623XXSP,2013-04-09 20:29:00,
2013-04-09 13:35:00,56.1,15.7,30.13,NW,315,11.9,11.9,20,0.00,,,0.00,WUHU21623XXSP,2013-04-09 20:35:00,
2013-04-09 13:40:00,56.3,15.8,30.13,NNW,337,9.6,11.9,20,0.00,,,0.00,WUHU21623XXSP,2013-04-09 20:40:00,
2013-04-09 13:54:00,57.6,16.8,30.12,North,0,13.4,13.4,20,0.00,,,0.00,WUHU21623XXSP,2013-04-09 20:54:00,
2013-04-09 14:07:00,58.1,15.7,30.13,NNW,337,6.0,6.0,19,0.00,,,0.00,WUHU21623XXSP,2013-04-09 21:07:00,
2013-04-09 14:13:00,57.9,17.1,30.13,NNW,337,0.0,6.0,20,0.00,,,0.00,WUHU21623XXSP,2013-04-09 21:13:00,
2013-04-09 14:18:00,58.3,17.4,30.12,NNW,337,3.8,3.8,20,0.00,,,0.00,WUHU21623XXSP,2013-04-09 21:18:00,
2013-04-09 14:28:00,58.3,15.8,30.12,WNW,292,4.7,4.7,19,0.00,,,0.00,WUHU21623XXSP,2013-04-09 21:28:00,
2013-04-09 14:33:00,58.3,14.3,30.12,NW,315,5.1,5.1,18,0.00,,,0.00,WUHU21623XXSP,2013-04-09 21:33:00,
2013-04-09 14:39:00,58.1,14.1,30.12,NNE,22,0.0,5.1,18,0.00,,,0.00,WUHU21623XXSP,2013-04-09 21:39:00,
2013-04-09 14:44:00,58.1,14.1,30.12,NNE,22,9.4,9.4,18,0.00,,,0.00,WUHU21623XXSP,2013-04-09 21:44:00,
2013-04-09 14:49:00,58.5,15.8,30.12,North,0,8.7,9.4,19,0.00,,,0.00,WUHU21623XXSP,2013-04-09 21:49:00,
2013-04-09 14:55:00,58.3,18.3,30.12,WNW,292,9.4,9.4,21,0.00,,,0.00,WUHU21623XXSP,2013-04-09 21:55:00,
2013-04-09 15:00:00,57.9,18.0,30.12,NW,315,8.1,9.4,21,0.00,,,0.00,WUHU21623XXSP,2013-04-09 22:00:00,
2013-04-09 15:09:00,58.1,18.2,30.12,North,0,0.0,8.1,21,0.00,,,0.00,WUHU21623XXSP,2013-04-09 22:09:00,
2013-04-09 15:24:00,58.6,16.3,30.12,WNW,292,8.9,8.9,19,0.00,,,0.00,WUHU21623XXSP,2013-04-09 22:24:00,
2013-04-09 15:34:00,58.5,16.0,30.12,NE,45,2.5,2.5,19,0.00,,,0.00,WUHU21623XXSP,2013-04-09 22:34:00,
2013-04-09 15:45:00,58.3,12.7,30.13,NW,315,5.1,5.1,17,0.00,,,0.00,WUHU21623XXSP,2013-04-09 22:45:00,
2013-04-09 15:50:00,57.9,12.5,30.13,NW,315,9.6,9.6,17,0.00,,,0.00,WUHU21623XXSP,2013-04-09 22:50:00,
2013-04-09 15:56:00,57.4,8.9,30.12,NNW,337,2.9,9.6,17,0.00,,,0.00,WUHU21623XXSP,2013-04-09 22:56:00,
2013-04-09 16:02:00,57.0,8.6,30.13,NE,45,3.6,3.6,15,0.00,,,0.00,WUHU21623XXSP,2013-04-09 23:02:00,
2013-04-09 16:08:00,56.8,8.5,30.13,NE,45,1.1,3.6,15,0.00,,,0.00,WUHU21623XXSP,2013-04-09 23:08:00,
2013-04-09 16:19:00,56.5,11.3,30.13,NW,315,8.3,8.3,17,0.00,,,0.00,WUHU21623XXSP,2013-04-09 23:19:00,
2013-04-09 16:26:00,56.5,12.8,30.13,North,0,7.4,8.3,18,0.00,,,0.00,WUHU21623XXSP,2013-04-09 23:26:00,
2013-04-09 16:31:00,56.5,12.8,30.13,North,0,3.1,7.4,18,0.00,,,0.00,WUHU21623XXSP,2013-04-09 23:31:00,
2013-04-09 16:36:00,56.3,14.3,30.13,WNW,292,14.3,14.3,19,0.00,,,0.00,WUHU21623XXSP,2013-04-09 23:36:00,
2013-04-09 16:41:00,55.9,14.0,30.13,NNW,337,9.8,14.3,19,0.00,,,0.00,WUHU21623XXSP,2013-04-09 23:41:00,
2013-04-09 16:49:00,55.6,15.2,30.13,NW,315,11.2,11.2,20,0.00,,,0.00,WUHU21623XXSP,2013-04-09 23:49:00,
2013-04-09 16:54:00,55.2,14.9,30.13,North,0,9.2,11.2,20,0.00,,,0.00,WUHU21623XXSP,2013-04-09 23:54:00,
2013-04-09 17:04:00,54.5,14.3,30.13,WNW,292,5.1,5.1,20,0.00,,,0.00,WUHU21623XXSP,2013-04-10 00:04:00,
2013-04-09 17:23:00,54.0,14.7,30.14,WNW,292,15.9,15.9,21,0.00,,,0.00,WUHU21623XXSP,2013-04-10 00:23:00,
2013-04-09 17:32:00,53.8,15.5,30.15,WNW,292,12.8,15.9,22,0.00,,,0.00,WUHU21623XXSP,2013-04-10 00:32:00,
2013-04-09 17:37:00,53.4,15.2,30.15,NNW,337,8.9,12.8,22,0.00,,,0.00,WUHU21623XXSP,2013-04-10 00:37:00,
2013-04-09 17:43:00,53.4,15.2,30.15,WNW,292,4.7,8.9,22,0.00,,,0.00,WUHU21623XXSP,2013-04-10 00:43:00,
2013-04-09 17:48:00,53.4,15.2,30.15,WNW,292,8.7,8.7,22,0.00,,,0.00,WUHU21623XXSP,2013-04-10 00:48:00,
2013-04-09 17:53:00,53.2,15.1,30.15,NW,315,6.3,8.7,22,0.00,,,0.00,WUHU21623XXSP,2013-04-10 00:53:00,
2013-04-09 17:58:00,52.9,14.8,30.15,NW,315,9.8,9.8,22,0.00,,,0.00,WUHU21623XXSP,2013-04-10 00:58:00,
2013-04-09 18:04:00,52.9,14.8,30.15,West,270,8.7,9.8,22,0.00,,,0.00,WUHU21623XXSP,2013-04-10 01:04:00,
2013-04-09 18:09:00,52.7,14.6,30.15,NW,315,7.2,8.7,22,0.00,,,0.00,WUHU21623XXSP,2013-04-10 01:09:00,
2013-04-09 18:14:00,52.7,14.6,30.15,North,0,2.9,7.2,22,0.00,,,0.00,WUHU21623XXSP,2013-04-10 01:14:00,
2013-04-09 18:19:00,52.5,14.5,30.15,NNW,337,6.3,6.3,22,0.00,,,0.00,WUHU21623XXSP,2013-04-10 01:19:00,
2013-04-09 18:25:00,52.3,14.3,30.16,NE,45,1.8,6.3,22,0.00,,,0.00,WUHU21623XXSP,2013-04-10 01:25:00,
2013-04-09 18:30:00,52.3,14.3,30.16,NW,315,6.5,6.5,22,0.00,,,0.00,WUHU21623XXSP,2013-04-10 01:30:00,
2013-04-09 18:36:00,52.0,14.0,30.16,NW,315,0.0,6.5,22,0.00,,,0.00,WUHU21623XXSP,2013-04-10 01:36:00,
2013-04-09 18:43:00,51.8,13.9,30.16,NNE,22,4.9,4.9,22,0.00,,,0.00,WUHU21623XXSP,2013-04-10 01:43:00,
2013-04-09 18:48:00,51.6,13.9,30.16,NNE,22,4.9,4.9,23,0.00,,,0.00,WUHU21623XXSP,2013-04-10 01:48:00,
2013-04-09 18:53:00,51.6,13.7,30.17,NW,315,9.8,9.8,22,0.00,,,0.00,WUHU21623XXSP,2013-04-10 01:53:00,
2013-04-09 19:00:00,51.4,13.6,30.17,WNW,292,0.0,9.8,22,0.00,,,0.00,WUHU21623XXSP,2013-04-10 02:00:00,
2013-04-09 19:05:00,51.1,14.2,30.17,NE,45,4.5,4.5,23,0.00,,,0.00,WUHU21623XXSP,2013-04-10 02:05:00,
2013-04-09 19:10:00,50.9,14.1,30.17,East,90,2.0,4.5,23,0.00,,,0.00,WUHU21623XXSP,2013-04-10 02:10:00,
2013-04-09 19:15:00,50.7,13.0,30.17,NNE,22,4.5,4.5,23,0.00,,,0.00,WUHU21623XXSP,2013-04-10 02:15:00,
2013-04-09 19:21:00,50.4,13.6,30.17,West,270,5.1,5.1,23,0.00,,,0.00,WUHU21623XXSP,2013-04-10 02:21:00,
2013-04-09 19:34:00,49.8,13.2,30.17,ENE,67,3.6,3.6,23,0.00,,,0.00,WUHU21623XXSP,2013-04-10 02:34:00,
2013-04-09 19:39:00,49.6,13.0,30.17,NNE,22,7.8,7.8,23,0.00,,,0.00,WUHU21623XXSP,2013-04-10 02:39:00,
2013-04-09 19:44:00,49.3,12.7,30.17,North,0,4.7,7.8,23,0.00,,,0.00,WUHU21623XXSP,2013-04-10 02:44:00,
2013-04-09 19:49:00,49.3,12.7,30.17,North,0,3.4,4.7,23,0.00,,,0.00,WUHU21623XXSP,2013-04-10 02:49:00,
2013-04-09 19:54:00,48.9,12.5,30.18,NNW,337,3.4,3.4,23,0.00,,,0.00,WUHU21623XXSP,2013-04-10 02:54:00,
2013-04-09 20:04:00,48.7,13.2,30.18,NNE,22,0.0,0.0,24,0.00,,,0.00,WUHU21623XXSP,2013-04-10 03:04:00,
2013-04-09 20:09:00,48.6,13.0,30.18,NE,45,0.0,0.0,24,0.00,,,0.00,WUHU21623XXSP,2013-04-10 03:09:00,
2013-04-09 20:19:00,48.0,12.5,30.19,North,0,0.0,0.0,24,0.00,,,0.00,WUHU21623XXSP,2013-04-10 03:19:00,
2013-04-09 20:25:00,48.0,12.5,30.19,NNE,22,1.3,1.3,24,0.00,,,0.00,WUHU21623XXSP,2013-04-10 03:25:00,
2013-04-09 20:34:00,47.8,13.3,30.19,NE,45,3.8,3.8,25,0.00,,,0.00,WUHU21623XXSP,2013-04-10 03:34:00,
2013-04-09 20:47:00,47.5,13.0,30.20,NNE,22,1.6,1.6,25,0.00,,,0.00,WUHU21623XXSP,2013-04-10 03:47:00,
2013-04-09 20:52:00,47.3,12.9,30.20,NNE,22,0.0,1.6,25,0.00,,,0.00,WUHU21623XXSP,2013-04-10 03:52:00,
2013-04-09 20:57:00,47.1,12.7,30.21,NNE,22,0.0,0.0,25,0.00,,,0.00,WUHU21623XXSP,2013-04-10 03:57:00,
2013-04-09 21:10:00,46.8,13.3,30.22,SSW,202,0.0,0.0,26,0.00,,,0.00,WUHU21623XXSP,2013-04-10 04:10:00,
2013-04-09 21:11:00,46.8,13.3,30.22,SSW,202,0.0,0.0,26,0.00,,,0.00,WUHU21623XXSP,2013-04-10 04:11:00,
2013-04-09 21:19:00,46.2,12.9,30.22,SSE,157,0.0,0.0,26,0.00,,,0.00,WUHU21623XXSP,2013-04-10 04:19:00,
2013-04-09 21:28:00,45.7,12.4,30.22,ESE,112,0.0,0.0,26,0.00,,,0.00,WUHU21623XXSP,2013-04-10 04:28:00,
2013-04-09 21:32:00,45.3,12.1,30.22,ENE,67,0.0,0.0,26,0.00,,,0.00,WUHU21623XXSP,2013-04-10 04:32:00,
2013-04-09 21:38:00,45.0,11.8,30.22,SE,135,0.0,0.0,26,0.00,,,0.00,WUHU21623XXSP,2013-04-10 04:38:00,
2013-04-09 21:43:00,44.6,11.6,30.22,SSW,202,0.0,0.0,26,0.00,,,0.00,WUHU21623XXSP,2013-04-10 04:43:00,
2013-04-09 21:48:00,44.4,11.3,30.22,South,180,0.0,0.0,26,0.00,,,0.00,WUHU21623XXSP,2013-04-10 04:48:00,
2013-04-09 21:53:00,43.9,10.8,30.22,East,90,0.0,0.0,26,0.00,,,0.00,WUHU21623XXSP,2013-04-10 04:53:00,
2013-04-09 22:01:00,43.2,11.1,30.23,SE,135,0.0,0.0,27,0.00,,,0.00,WUHU21623XXSP,2013-04-10 05:01:00,
2013-04-09 22:06:00,42.6,10.6,30.23,SSE,157,0.0,0.0,27,0.00,,,0.00,WUHU21623XXSP,2013-04-10 05:06:00,
2013-04-09 22:12:00,42.1,10.2,30.23,WNW,292,0.0,0.0,27,0.00,,,0.00,WUHU21623XXSP,2013-04-10 05:12:00,
2013-04-09 22:27:00,41.0,9.3,30.23,SSE,157,0.0,0.0,27,0.00,,,0.00,WUHU21623XXSP,2013-04-10 05:27:00,
2013-04-09 22:32:00,40.6,9.9,30.23,NE,45,0.0,0.0,28,0.00,,,0.00,WUHU21623XXSP,2013-04-10 05:32:00,
2013-04-09 22:37:00,40.3,9.6,30.23,West,270,0.0,0.0,28,0.00,,,0.00,WUHU21623XXSP,2013-04-10 05:37:00,
2013-04-09 22:46:00,39.7,9.1,30.23,NE,45,0.0,0.0,28,0.00,,,0.00,WUHU21623XXSP,2013-04-10 05:46:00,
2013-04-09 22:52:00,39.4,8.8,30.23,NE,45,0.0,0.0,28,0.00,,,0.00,WUHU21623XXSP,2013-04-10 05:52:00,
2013-04-09 23:03:00,38.5,8.0,30.24,WNW,292,0.0,0.0,28,0.00,,,0.00,WUHU21623XXSP,2013-04-10 06:03:00,
2013-04-09 23:10:00,38.1,7.6,30.24,WNW,292,0.0,0.0,28,0.00,,,0.00,WUHU21623XXSP,2013-04-10 06:10:00,
2013-04-09 23:16:00,37.6,8.0,30.24,SSE,157,0.0,0.0,29,0.00,,,0.00,WUHU21623XXSP,2013-04-10 06:16:00,
2013-04-09 23:44:00,36.0,7.5,30.24,East,90,0.0,0.0,30,0.00,,,0.00,WUHU21623XXSP,2013-04-10 06:44:00,
2013-04-09 23:51:00,35.8,7.3,30.24,NNE,22,0.0,0.0,30,0.00,,,0.00,WUHU21623XXSP,2013-04-10 06:51:00,
2013-04-09 23:56:00,35.4,7.2,30.24,WNW,292,0.0,0.0,30,0.00,,,0.00,WUHU21623XXSP,2013-04-10 06:56:00,